createdAt,value
2022-09-15T00:03:42.127Z,47.9
2022-09-15T00:08:42.086Z,47.8
2022-09-15T00:13:42.115Z,47.9
2022-09-15T00:18:42.091Z,47.7
2022-09-15T00:23:42.140Z,47.7
2022-09-15T00:28:42.088Z,47.7
2022-09-15T00:33:42.089Z,47.8
2022-09-15T00:38:42.122Z,48
2022-09-15T00:43:42.112Z,47.8
2022-09-15T00:48:42.130Z,48
2022-09-15T00:53:42.164Z,48
2022-09-15T00:58:42.142Z,48
2022-09-15T01:03:42.132Z,48
2022-09-15T01:08:42.102Z,48.2
2022-09-15T01:13:42.110Z,48.4
2022-09-15T01:18:42.150Z,48.5
2022-09-15T01:23:42.144Z,48.5
2022-09-15T01:28:43.725Z,48.5
2022-09-15T01:33:42.166Z,48.5
2022-09-15T01:38:42.165Z,48.6
2022-09-15T01:43:42.182Z,48.7
2022-09-15T01:48:42.185Z,48.9
2022-09-15T01:53:42.167Z,48.9
2022-09-15T01:58:42.215Z,49
2022-09-15T02:03:42.172Z,48.9
2022-09-15T02:08:42.166Z,48.8
2022-09-15T02:13:42.141Z,48.8
2022-09-15T02:18:42.147Z,48.6
2022-09-15T02:23:42.172Z,48.5
2022-09-15T02:28:42.178Z,48.3
2022-09-15T02:33:42.173Z,48.3
2022-09-15T02:38:42.178Z,48.2
2022-09-15T02:43:42.176Z,48.3
2022-09-15T02:48:42.175Z,48.1
2022-09-15T02:53:42.201Z,48.2
2022-09-15T02:58:42.176Z,48.3
2022-09-15T03:03:43.023Z,48.3
2022-09-15T03:08:42.232Z,48.3
2022-09-15T03:13:42.167Z,48.4
2022-09-15T03:18:42.153Z,48.4
2022-09-15T03:23:42.154Z,48.2
2022-09-15T03:28:42.195Z,48
2022-09-15T03:33:42.184Z,47.9
2022-09-15T03:38:42.234Z,47.8
2022-09-15T03:43:42.234Z,47.7
2022-09-15T03:48:42.178Z,47.7
2022-09-15T03:53:42.245Z,47.5
2022-09-15T03:58:42.211Z,47.3
2022-09-15T04:03:44.348Z,47.4
2022-09-15T04:08:42.199Z,47
2022-09-15T04:13:42.171Z,46.8
2022-09-15T04:18:42.212Z,46.6
2022-09-15T04:23:42.221Z,46.6
2022-09-15T04:28:42.200Z,46.5
2022-09-15T04:33:42.220Z,46.3
2022-09-15T04:38:42.209Z,46.2
2022-09-15T04:43:42.202Z,46.2
2022-09-15T04:48:42.191Z,46.2
2022-09-15T04:53:42.269Z,46.1
2022-09-15T04:58:42.193Z,46.1
2022-09-15T05:03:42.219Z,46.2
2022-09-15T05:08:42.260Z,46.3
2022-09-15T05:13:42.217Z,46.4
2022-09-15T05:18:42.209Z,46.4
2022-09-15T05:23:42.254Z,46.4
2022-09-15T05:28:42.230Z,46.6
2022-09-15T05:33:42.209Z,46.6
2022-09-15T05:38:42.229Z,46.7
2022-09-15T05:43:42.218Z,46.9
2022-09-15T05:48:42.241Z,47
2022-09-15T05:53:42.264Z,47.2
2022-09-15T05:58:42.239Z,47.2
2022-09-15T06:03:42.249Z,47.2
2022-09-15T06:08:44.196Z,47.2
2022-09-15T06:13:42.259Z,47.3
2022-09-15T06:18:42.307Z,47.4
2022-09-15T06:23:44.106Z,47.3
2022-09-15T06:28:42.268Z,47.3
2022-09-15T06:33:42.264Z,47.2
2022-09-15T06:38:42.239Z,47.2
2022-09-15T06:43:42.383Z,47.2
2022-09-15T06:48:44.271Z,47.2
2022-09-15T06:53:42.246Z,47.3
2022-09-15T06:58:42.385Z,47.4
2022-09-15T07:03:42.374Z,47.2
2022-09-15T07:08:42.368Z,47.1
2022-09-15T07:13:42.256Z,47.3
2022-09-15T07:18:43.431Z,47.1
2022-09-15T07:23:42.376Z,47.1
2022-09-15T07:28:42.281Z,46.9
2022-09-15T07:33:42.377Z,46.8
2022-09-15T07:38:42.238Z,46.7
2022-09-15T07:43:42.277Z,46.7
2022-09-15T07:48:42.397Z,46.5
2022-09-15T07:53:42.304Z,46.5
2022-09-15T07:58:42.343Z,46.5
2022-09-15T08:03:42.377Z,46.2
2022-09-15T08:08:42.306Z,46.1
2022-09-15T08:13:42.291Z,45.7
2022-09-15T08:18:42.399Z,45.5
2022-09-15T08:23:42.308Z,45.4
2022-09-15T08:28:42.475Z,45
2022-09-15T08:33:45.642Z,44.8
2022-09-15T08:38:42.314Z,44.7
2022-09-15T08:43:42.346Z,44.3
2022-09-15T08:48:42.310Z,44.1
2022-09-15T08:53:42.335Z,43.5
2022-09-15T08:58:42.345Z,42.9
2022-09-15T09:03:42.329Z,42.6
2022-09-15T09:08:42.329Z,42.2
2022-09-15T09:13:42.303Z,42.1
2022-09-15T09:18:42.313Z,41.7
2022-09-15T09:23:42.357Z,41.6
2022-09-15T09:28:42.349Z,41.5
2022-09-15T09:33:46.785Z,41.1
2022-09-15T09:38:42.331Z,40.7
2022-09-15T09:43:42.407Z,40.5
2022-09-15T09:48:42.308Z,40.5
2022-09-15T09:53:42.374Z,40.2
2022-09-15T09:58:42.374Z,39.9
2022-09-15T10:03:42.388Z,39.8
2022-09-15T10:08:42.375Z,39.4
2022-09-15T10:13:42.326Z,39.2
2022-09-15T10:18:42.311Z,39.1
2022-09-15T10:23:42.409Z,37.8
2022-09-15T10:28:42.372Z,38.5
2022-09-15T10:33:42.357Z,38.2
2022-09-15T10:38:42.501Z,38
2022-09-15T10:43:42.386Z,37.8
2022-09-15T10:48:42.392Z,38.1
2022-09-15T10:53:42.450Z,37.9
2022-09-15T10:58:44.938Z,37.7
2022-09-15T11:03:42.353Z,37.5
2022-09-15T11:08:42.459Z,36.2
2022-09-15T11:13:42.401Z,37.5
2022-09-15T11:18:42.404Z,36.9
2022-09-15T11:23:42.451Z,36.5
2022-09-15T11:28:42.367Z,36.2
2022-09-15T11:33:42.486Z,36.5
2022-09-15T11:38:42.361Z,36
2022-09-15T11:43:42.395Z,35.6
2022-09-15T11:48:42.475Z,35.5
2022-09-15T11:53:42.394Z,35.6
2022-09-15T11:58:42.412Z,35.5
2022-09-15T12:03:42.433Z,35.7
2022-09-15T12:08:42.409Z,35.3
2022-09-15T12:13:42.380Z,34.7
2022-09-15T12:18:44.928Z,34.5
2022-09-15T12:23:42.436Z,34.4
2022-09-15T12:28:42.466Z,34.2
2022-09-15T12:33:42.426Z,32.8
2022-09-15T12:38:42.459Z,31.8
2022-09-15T12:43:42.405Z,33.4
2022-09-15T12:48:45.486Z,33
2022-09-15T12:53:43.396Z,31.9
2022-09-15T12:58:42.461Z,32
2022-09-15T13:03:42.427Z,31.5
2022-09-15T13:08:42.418Z,31.7
2022-09-15T13:13:42.444Z,31.8
2022-09-15T13:18:42.455Z,32
2022-09-15T13:23:42.445Z,32
2022-09-15T13:28:42.515Z,32.1
2022-09-15T13:38:42.523Z,31.8
2022-09-15T13:43:42.493Z,31.5
2022-09-15T13:48:42.445Z,31.5
2022-09-15T13:53:42.502Z,31.3
2022-09-15T13:59:02.722Z,31.5
2022-09-15T14:03:42.492Z,32
2022-09-15T14:08:42.466Z,32.3
2022-09-15T14:13:42.462Z,32.6
2022-09-15T14:18:42.445Z,32.5
2022-09-15T14:23:42.530Z,32.6
2022-09-15T14:28:42.501Z,32.5
2022-09-15T14:33:42.461Z,32.8
2022-09-15T14:38:42.539Z,32.7
2022-09-15T14:43:42.484Z,32.4
2022-09-15T14:48:42.467Z,31.6
2022-09-15T14:53:42.452Z,30.9
2022-09-15T14:58:42.641Z,29.6
2022-09-15T15:03:42.437Z,30.7
2022-09-15T15:08:42.453Z,30.6
2022-09-15T15:13:42.770Z,30.5
2022-09-15T15:18:42.587Z,30.4
2022-09-15T15:23:46.401Z,30
2022-09-15T15:28:42.494Z,30.1
2022-09-15T15:33:42.491Z,30
2022-09-15T15:38:46.512Z,29.5
2022-09-15T15:43:42.521Z,29.1
2022-09-15T15:48:42.530Z,27.8
2022-09-15T15:53:42.507Z,28.4
2022-09-15T15:58:42.560Z,27.9
2022-09-15T16:03:42.537Z,27.6
2022-09-15T16:08:42.495Z,27.6
2022-09-15T16:13:42.598Z,27.6
2022-09-15T16:18:42.521Z,27.5
2022-09-15T16:23:42.538Z,28
2022-09-15T16:28:42.488Z,28.7
2022-09-15T16:33:42.508Z,29.2
2022-09-15T16:38:42.539Z,29.8
2022-09-15T16:43:42.578Z,30.3
2022-09-15T16:48:42.507Z,31.1
2022-09-15T16:53:42.512Z,29.9
2022-09-15T16:58:42.605Z,32.4
2022-09-15T17:03:42.521Z,32.8
2022-09-15T17:08:42.632Z,33.2
2022-09-15T17:13:42.544Z,33.4
2022-09-15T17:18:42.526Z,33.7
2022-09-15T17:23:42.522Z,33.9
2022-09-15T17:28:42.528Z,34
2022-09-15T17:33:42.544Z,34
2022-09-15T17:38:42.653Z,34.1
2022-09-15T17:43:42.597Z,34.1
2022-09-15T17:48:42.565Z,34.3
2022-09-15T17:53:42.670Z,34.2
2022-09-15T17:58:42.572Z,34.3
2022-09-15T18:03:42.540Z,34.3
2022-09-15T18:08:42.636Z,34.1
2022-09-15T18:13:42.610Z,33.9
2022-09-15T18:18:42.618Z,32.4
2022-09-15T18:23:42.565Z,33.3
2022-09-15T18:28:42.732Z,31.6
2022-09-15T18:33:42.536Z,32.7
2022-09-15T18:38:42.569Z,32.4
2022-09-15T18:43:42.625Z,32.4
2022-09-15T18:48:42.562Z,32.1
2022-09-15T18:53:42.560Z,32.1
2022-09-15T18:58:42.629Z,32
2022-09-15T19:03:44.215Z,32
2022-09-15T19:08:42.600Z,32.1
2022-09-15T19:13:42.671Z,31.9
2022-09-15T19:18:42.655Z,31.9
2022-09-15T19:23:42.560Z,31.9
2022-09-15T19:28:42.633Z,31.9
2022-09-15T19:33:42.590Z,31.9
2022-09-15T19:38:42.554Z,32.1
2022-09-15T19:43:42.540Z,32.2
2022-09-15T19:48:43.851Z,32.4
2022-09-15T19:53:42.578Z,32.5
2022-09-15T19:58:42.599Z,32.6
2022-09-15T20:03:42.616Z,32.6
2022-09-15T20:08:42.614Z,32.7
2022-09-15T20:13:42.662Z,32.8
2022-09-15T20:18:42.560Z,32.6
